sensor_id;sensor_type;location;lat;lon;timestamp;P1;durP1;ratioP1;P2;durP2;ratioP2
40717;SDS011;26405;51.850;-2.246;2023-05-10T00:01:49;9.52;;;3.42;;
40717;SDS011;26405;51.850;-2.246;2023-05-10T00:04:15;9.18;;;3.20;;
40717;SDS011;26405;51.850;-2.246;2023-05-10T00:06:40;12.35;;;3.13;;
40717;SDS011;26405;51.850;-2.246;2023-05-10T00:09:05;7.35;;;2.78;;
40717;SDS011;26405;51.850;-2.246;2023-05-10T00:11:31;9.55;;;2.90;;
40717;SDS011;26405;51.850;-2.246;2023-05-10T00:13:56;8.13;;;2.90;;
40717;SDS011;26405;51.850;-2.246;2023-05-10T00:16:21;8.05;;;2.92;;
40717;SDS011;26405;51.850;-2.246;2023-05-10T00:18:47;9.40;;;2.90;;
40717;SDS011;26405;51.850;-2.246;2023-05-10T00:21:12;9.23;;;3.20;;
40717;SDS011;26405;51.850;-2.246;2023-05-10T00:23:37;9.05;;;3.20;;
40717;SDS011;26405;51.850;-2.246;2023-05-10T00:26:03;8.02;;;2.92;;
40717;SDS011;26405;51.850;-2.246;2023-05-10T00:28:28;6.15;;;2.78;;
40717;SDS011;26405;51.850;-2.246;2023-05-10T00:30:54;9.93;;;3.13;;
40717;SDS011;26405;51.850;-2.246;2023-05-10T00:33:19;13.82;;;3.53;;
40717;SDS011;26405;51.850;-2.246;2023-05-10T00:35:44;9.80;;;3.10;;
40717;SDS011;26405;51.850;-2.246;2023-05-10T00:38:10;7.60;;;2.90;;
40717;SDS011;26405;51.850;-2.246;2023-05-10T00:40:35;10.27;;;3.40;;
40717;SDS011;26405;51.850;-2.246;2023-05-10T00:43:01;10.48;;;3.33;;
40717;SDS011;26405;51.850;-2.246;2023-05-10T00:45:26;8.35;;;2.90;;
40717;SDS011;26405;51.850;-2.246;2023-05-10T00:47:52;10.82;;;3.00;;
40717;SDS011;26405;51.850;-2.246;2023-05-10T00:50:20;6.30;;;2.72;;
40717;SDS011;26405;51.850;-2.246;2023-05-10T00:52:45;8.82;;;2.80;;
40717;SDS011;26405;51.850;-2.246;2023-05-10T00:55:11;6.03;;;2.58;;
40717;SDS011;26405;51.850;-2.246;2023-05-10T00:57:37;8.40;;;2.67;;
40717;SDS011;26405;51.850;-2.246;2023-05-10T01:00:02;8.40;;;2.97;;
40717;SDS011;26405;51.850;-2.246;2023-05-10T01:02:28;10.38;;;3.20;;
40717;SDS011;26405;51.850;-2.246;2023-05-10T01:04:53;8.93;;;2.90;;
40717;SDS011;26405;51.850;-2.246;2023-05-10T01:07:19;11.55;;;3.15;;
40717;SDS011;26405;51.850;-2.246;2023-05-10T01:09:44;6.75;;;2.80;;
40717;SDS011;26405;51.850;-2.246;2023-05-10T01:12:10;10.57;;;2.83;;
40717;SDS011;26405;51.850;-2.246;2023-05-10T01:14:35;9.25;;;2.90;;
40717;SDS011;26405;51.850;-2.246;2023-05-10T01:17:01;10.40;;;3.00;;
40717;SDS011;26405;51.850;-2.246;2023-05-10T01:19:27;10.65;;;2.67;;
40717;SDS011;26405;51.850;-2.246;2023-05-10T01:34:38;10.00;;;2.87;;
40717;SDS011;26405;51.850;-2.246;2023-05-10T01:37:06;11.05;;;3.22;;
40717;SDS011;26405;51.850;-2.246;2023-05-10T01:39:36;10.93;;;3.00;;
40717;SDS011;26405;51.850;-2.246;2023-05-10T01:42:09;6.78;;;2.63;;
40717;SDS011;26405;51.850;-2.246;2023-05-10T01:44:37;11.02;;;3.05;;
40717;SDS011;26405;51.850;-2.246;2023-05-10T01:47:05;9.23;;;2.58;;
40717;SDS011;26405;51.850;-2.246;2023-05-10T01:49:34;11.80;;;2.72;;
40717;SDS011;26405;51.850;-2.246;2023-05-10T01:52:04;11.55;;;2.70;;
40717;SDS011;26405;51.850;-2.246;2023-05-10T01:54:31;17.92;;;3.78;;
40717;SDS011;26405;51.850;-2.246;2023-05-10T01:57:02;10.15;;;3.08;;
40717;SDS011;26405;51.850;-2.246;2023-05-10T01:59:29;9.65;;;2.95;;
40717;SDS011;26405;51.850;-2.246;2023-05-10T02:01:55;9.53;;;2.80;;
40717;SDS011;26405;51.850;-2.246;2023-05-10T02:04:22;11.48;;;2.92;;
40717;SDS011;26405;51.850;-2.246;2023-05-10T02:06:48;13.33;;;3.03;;
40717;SDS011;26405;51.850;-2.246;2023-05-10T02:09:15;9.52;;;2.92;;
40717;SDS011;26405;51.850;-2.246;2023-05-10T02:11:41;9.52;;;2.95;;
40717;SDS011;26405;51.850;-2.246;2023-05-10T02:14:08;11.13;;;3.08;;
40717;SDS011;26405;51.850;-2.246;2023-05-10T02:16:34;11.88;;;3.03;;
40717;SDS011;26405;51.850;-2.246;2023-05-10T02:19:00;10.65;;;3.20;;
40717;SDS011;26405;51.850;-2.246;2023-05-10T02:21:26;12.73;;;3.25;;
40717;SDS011;26405;51.850;-2.246;2023-05-10T02:23:52;9.80;;;2.85;;
40717;SDS011;26405;51.850;-2.246;2023-05-10T02:26:19;12.82;;;3.65;;
40717;SDS011;26405;51.850;-2.246;2023-05-10T02:31:11;10.82;;;3.00;;
40717;SDS011;26405;51.850;-2.246;2023-05-10T02:33:37;10.73;;;2.83;;
40717;SDS011;26405;51.850;-2.246;2023-05-10T02:38:29;13.50;;;3.07;;
40717;SDS011;26405;51.850;-2.246;2023-05-10T02:40:55;14.73;;;3.25;;
40717;SDS011;26405;51.850;-2.246;2023-05-10T02:43:21;10.82;;;2.67;;
40717;SDS011;26405;51.850;-2.246;2023-05-10T02:45:48;9.52;;;2.80;;
40717;SDS011;26405;51.850;-2.246;2023-05-10T02:48:13;12.52;;;3.35;;
40717;SDS011;26405;51.850;-2.246;2023-05-10T02:50:39;11.63;;;3.30;;
40717;SDS011;26405;51.850;-2.246;2023-05-10T02:53:08;13.15;;;3.28;;
40717;SDS011;26405;51.850;-2.246;2023-05-10T02:55:37;15.07;;;3.33;;
40717;SDS011;26405;51.850;-2.246;2023-05-10T02:58:03;11.27;;;2.88;;
40717;SDS011;26405;51.850;-2.246;2023-05-10T03:00:29;13.32;;;3.08;;
40717;SDS011;26405;51.850;-2.246;2023-05-10T03:02:54;12.88;;;3.20;;
40717;SDS011;26405;51.850;-2.246;2023-05-10T03:05:20;12.35;;;3.13;;
40717;SDS011;26405;51.850;-2.246;2023-05-10T03:07:45;12.82;;;3.30;;
40717;SDS011;26405;51.850;-2.246;2023-05-10T03:10:11;7.93;;;2.65;;
40717;SDS011;26405;51.850;-2.246;2023-05-10T03:20:31;12.07;;;3.13;;
40717;SDS011;26405;51.850;-2.246;2023-05-10T03:23:00;9.13;;;3.03;;
40717;SDS011;26405;51.850;-2.246;2023-05-10T03:25:27;12.32;;;3.35;;
40717;SDS011;26405;51.850;-2.246;2023-05-10T03:27:54;15.10;;;3.45;;
40717;SDS011;26405;51.850;-2.246;2023-05-10T03:30:20;11.67;;;3.50;;
40717;SDS011;26405;51.850;-2.246;2023-05-10T03:32:46;15.55;;;3.65;;
40717;SDS011;26405;51.850;-2.246;2023-05-10T03:35:12;12.90;;;3.30;;
40717;SDS011;26405;51.850;-2.246;2023-05-10T03:37:38;13.38;;;3.45;;
40717;SDS011;26405;51.850;-2.246;2023-05-10T03:40:03;10.27;;;3.20;;
40717;SDS011;26405;51.850;-2.246;2023-05-10T03:42:29;14.18;;;3.53;;
40717;SDS011;26405;51.850;-2.246;2023-05-10T03:44:54;16.27;;;3.90;;
40717;SDS011;26405;51.850;-2.246;2023-05-10T03:47:19;13.82;;;3.88;;
40717;SDS011;26405;51.850;-2.246;2023-05-10T03:49:45;15.65;;;3.97;;
40717;SDS011;26405;51.850;-2.246;2023-05-10T03:52:10;14.88;;;3.95;;
40717;SDS011;26405;51.850;-2.246;2023-05-10T03:54:35;16.95;;;4.10;;
40717;SDS011;26405;51.850;-2.246;2023-05-10T03:57:01;18.42;;;4.22;;
40717;SDS011;26405;51.850;-2.246;2023-05-10T03:59:27;13.80;;;3.75;;
40717;SDS011;26405;51.850;-2.246;2023-05-10T04:01:53;15.70;;;3.95;;
40717;SDS011;26405;51.850;-2.246;2023-05-10T04:04:18;14.57;;;4.65;;
40717;SDS011;26405;51.850;-2.246;2023-05-10T04:06:45;17.13;;;4.60;;
40717;SDS011;26405;51.850;-2.246;2023-05-10T04:09:10;15.23;;;4.10;;
40717;SDS011;26405;51.850;-2.246;2023-05-10T04:11:36;15.45;;;4.28;;
40717;SDS011;26405;51.850;-2.246;2023-05-10T04:14:01;20.45;;;4.82;;
40717;SDS011;26405;51.850;-2.246;2023-05-10T04:16:26;17.85;;;5.07;;
40717;SDS011;26405;51.850;-2.246;2023-05-10T04:18:52;18.42;;;4.93;;
40717;SDS011;26405;51.850;-2.246;2023-05-10T04:21:17;16.30;;;4.60;;
40717;SDS011;26405;51.850;-2.246;2023-05-10T04:23:42;17.27;;;4.85;;
40717;SDS011;26405;51.850;-2.246;2023-05-10T04:26:07;18.20;;;4.82;;
40717;SDS011;26405;51.850;-2.246;2023-05-10T04:28:33;18.95;;;5.25;;
40717;SDS011;26405;51.850;-2.246;2023-05-10T04:31:02;16.73;;;5.05;;
40717;SDS011;26405;51.850;-2.246;2023-05-10T04:33:27;17.17;;;5.35;;
40717;SDS011;26405;51.850;-2.246;2023-05-10T04:35:53;15.77;;;5.03;;
40717;SDS011;26405;51.850;-2.246;2023-05-10T04:38:18;19.48;;;5.63;;
40717;SDS011;26405;51.850;-2.246;2023-05-10T04:40:43;18.77;;;5.57;;
40717;SDS011;26405;51.850;-2.246;2023-05-10T04:43:08;18.33;;;5.80;;
40717;SDS011;26405;51.850;-2.246;2023-05-10T04:45:34;17.92;;;5.10;;
40717;SDS011;26405;51.850;-2.246;2023-05-10T04:47:59;18.92;;;6.00;;
40717;SDS011;26405;51.850;-2.246;2023-05-10T04:50:24;16.80;;;4.78;;
40717;SDS011;26405;51.850;-2.246;2023-05-10T04:52:50;19.05;;;5.50;;
40717;SDS011;26405;51.850;-2.246;2023-05-10T04:55:15;17.55;;;5.53;;
40717;SDS011;26405;51.850;-2.246;2023-05-10T04:57:41;18.30;;;5.35;;
40717;SDS011;26405;51.850;-2.246;2023-05-10T05:00:06;16.25;;;5.63;;
40717;SDS011;26405;51.850;-2.246;2023-05-10T05:02:31;16.33;;;5.60;;
40717;SDS011;26405;51.850;-2.246;2023-05-10T05:04:57;17.00;;;6.15;;
40717;SDS011;26405;51.850;-2.246;2023-05-10T05:07:22;16.27;;;5.88;;
40717;SDS011;26405;51.850;-2.246;2023-05-10T05:09:48;17.63;;;5.57;;
40717;SDS011;26405;51.850;-2.246;2023-05-10T05:12:13;18.65;;;5.88;;
40717;SDS011;26405;51.850;-2.246;2023-05-10T05:14:39;15.63;;;5.10;;
40717;SDS011;26405;51.850;-2.246;2023-05-10T05:17:04;17.45;;;6.10;;
40717;SDS011;26405;51.850;-2.246;2023-05-10T05:19:30;19.80;;;6.40;;
40717;SDS011;26405;51.850;-2.246;2023-05-10T05:21:56;20.73;;;6.38;;
40717;SDS011;26405;51.850;-2.246;2023-05-10T05:24:21;21.27;;;5.90;;
40717;SDS011;26405;51.850;-2.246;2023-05-10T05:26:46;17.65;;;6.15;;
40717;SDS011;26405;51.850;-2.246;2023-05-10T05:29:12;17.10;;;5.88;;
40717;SDS011;26405;51.850;-2.246;2023-05-10T05:31:37;17.45;;;6.03;;
40717;SDS011;26405;51.850;-2.246;2023-05-10T05:34:02;18.45;;;5.97;;
40717;SDS011;26405;51.850;-2.246;2023-05-10T05:36:28;17.67;;;6.40;;
40717;SDS011;26405;51.850;-2.246;2023-05-10T05:38:53;20.20;;;5.95;;
40717;SDS011;26405;51.850;-2.246;2023-05-10T05:41:18;17.75;;;5.57;;
40717;SDS011;26405;51.850;-2.246;2023-05-10T05:43:43;15.40;;;5.20;;
40717;SDS011;26405;51.850;-2.246;2023-05-10T05:46:09;15.75;;;5.45;;
40717;SDS011;26405;51.850;-2.246;2023-05-10T05:48:34;17.08;;;5.35;;
40717;SDS011;26405;51.850;-2.246;2023-05-10T05:51:00;19.08;;;5.40;;
40717;SDS011;26405;51.850;-2.246;2023-05-10T05:53:25;18.95;;;6.15;;
40717;SDS011;26405;51.850;-2.246;2023-05-10T05:55:54;16.38;;;5.88;;
40717;SDS011;26405;51.850;-2.246;2023-05-10T05:58:20;16.38;;;5.25;;
40717;SDS011;26405;51.850;-2.246;2023-05-10T06:00:45;13.77;;;4.85;;
40717;SDS011;26405;51.850;-2.246;2023-05-10T06:03:10;14.25;;;5.30;;
40717;SDS011;26405;51.850;-2.246;2023-05-10T06:05:36;16.38;;;5.40;;
40717;SDS011;26405;51.850;-2.246;2023-05-10T06:08:01;15.13;;;4.90;;
40717;SDS011;26405;51.850;-2.246;2023-05-10T06:10:26;16.52;;;5.38;;
40717;SDS011;26405;51.850;-2.246;2023-05-10T06:12:51;18.10;;;5.40;;
40717;SDS011;26405;51.850;-2.246;2023-05-10T06:15:18;12.43;;;4.37;;
40717;SDS011;26405;51.850;-2.246;2023-05-10T06:17:43;15.60;;;4.82;;
40717;SDS011;26405;51.850;-2.246;2023-05-10T06:20:09;15.07;;;4.60;;
40717;SDS011;26405;51.850;-2.246;2023-05-10T06:22:34;14.85;;;4.30;;
40717;SDS011;26405;51.850;-2.246;2023-05-10T06:25:00;13.85;;;4.32;;
40717;SDS011;26405;51.850;-2.246;2023-05-10T06:27:25;16.20;;;4.95;;
40717;SDS011;26405;51.850;-2.246;2023-05-10T06:29:50;11.52;;;4.07;;
40717;SDS011;26405;51.850;-2.246;2023-05-10T06:32:16;9.70;;;3.97;;
40717;SDS011;26405;51.850;-2.246;2023-05-10T06:34:41;13.07;;;4.40;;
40717;SDS011;26405;51.850;-2.246;2023-05-10T06:37:09;15.35;;;3.95;;
40717;SDS011;26405;51.850;-2.246;2023-05-10T06:39:34;16.83;;;4.57;;
40717;SDS011;26405;51.850;-2.246;2023-05-10T06:42:00;14.77;;;4.00;;
40717;SDS011;26405;51.850;-2.246;2023-05-10T06:44:26;13.80;;;4.22;;
40717;SDS011;26405;51.850;-2.246;2023-05-10T06:46:51;14.13;;;4.22;;
40717;SDS011;26405;51.850;-2.246;2023-05-10T06:49:18;11.98;;;4.18;;
40717;SDS011;26405;51.850;-2.246;2023-05-10T06:51:43;11.65;;;4.10;;
40717;SDS011;26405;51.850;-2.246;2023-05-10T06:54:08;17.48;;;4.63;;
40717;SDS011;26405;51.850;-2.246;2023-05-10T06:56:34;11.77;;;3.90;;
40717;SDS011;26405;51.850;-2.246;2023-05-10T06:58:59;17.67;;;4.93;;
40717;SDS011;26405;51.850;-2.246;2023-05-10T07:01:24;11.68;;;4.00;;
40717;SDS011;26405;51.850;-2.246;2023-05-10T07:03:50;12.30;;;4.03;;
40717;SDS011;26405;51.850;-2.246;2023-05-10T07:06:15;11.82;;;3.80;;
40717;SDS011;26405;51.850;-2.246;2023-05-10T07:08:40;13.05;;;3.65;;
40717;SDS011;26405;51.850;-2.246;2023-05-10T07:11:06;17.63;;;3.92;;
40717;SDS011;26405;51.850;-2.246;2023-05-10T07:13:35;17.23;;;4.32;;
40717;SDS011;26405;51.850;-2.246;2023-05-10T07:16:01;11.52;;;3.58;;
40717;SDS011;26405;51.850;-2.246;2023-05-10T07:18:27;15.05;;;4.00;;
40717;SDS011;26405;51.850;-2.246;2023-05-10T07:20:52;12.00;;;3.42;;
40717;SDS011;26405;51.850;-2.246;2023-05-10T07:23:18;12.48;;;3.75;;
40717;SDS011;26405;51.850;-2.246;2023-05-10T07:25:46;13.40;;;3.42;;
40717;SDS011;26405;51.850;-2.246;2023-05-10T07:28:12;14.98;;;3.85;;
40717;SDS011;26405;51.850;-2.246;2023-05-10T07:30:38;10.33;;;3.20;;
40717;SDS011;26405;51.850;-2.246;2023-05-10T07:33:03;11.18;;;3.10;;
40717;SDS011;26405;51.850;-2.246;2023-05-10T07:35:28;11.43;;;3.60;;
40717;SDS011;26405;51.850;-2.246;2023-05-10T07:37:54;13.20;;;3.63;;
40717;SDS011;26405;51.850;-2.246;2023-05-10T07:40:19;13.05;;;3.58;;
40717;SDS011;26405;51.850;-2.246;2023-05-10T07:42:44;11.07;;;3.17;;
40717;SDS011;26405;51.850;-2.246;2023-05-10T07:45:10;11.27;;;3.30;;
40717;SDS011;26405;51.850;-2.246;2023-05-10T07:47:35;10.38;;;3.08;;
40717;SDS011;26405;51.850;-2.246;2023-05-10T07:50:01;15.32;;;3.40;;
40717;SDS011;26405;51.850;-2.246;2023-05-10T07:52:26;10.77;;;3.05;;
40717;SDS011;26405;51.850;-2.246;2023-05-10T07:54:51;13.10;;;3.20;;
40717;SDS011;26405;51.850;-2.246;2023-05-10T07:57:17;14.00;;;3.40;;
40717;SDS011;26405;51.850;-2.246;2023-05-10T07:59:43;7.75;;;3.00;;
40717;SDS011;26405;51.850;-2.246;2023-05-10T08:02:09;10.02;;;3.13;;
40717;SDS011;26405;51.850;-2.246;2023-05-10T08:04:34;7.70;;;3.00;;
40717;SDS011;26405;51.850;-2.246;2023-05-10T08:07:00;12.43;;;3.33;;
40717;SDS011;26405;51.850;-2.246;2023-05-10T08:09:25;13.73;;;3.10;;
40717;SDS011;26405;51.850;-2.246;2023-05-10T08:11:50;11.68;;;3.10;;
40717;SDS011;26405;51.850;-2.246;2023-05-10T08:14:16;11.20;;;3.10;;
40717;SDS011;26405;51.850;-2.246;2023-05-10T08:16:41;12.88;;;3.22;;
40717;SDS011;26405;51.850;-2.246;2023-05-10T08:19:07;10.07;;;2.88;;
40717;SDS011;26405;51.850;-2.246;2023-05-10T08:21:32;14.07;;;3.00;;
40717;SDS011;26405;51.850;-2.246;2023-05-10T08:23:57;14.52;;;3.42;;
40717;SDS011;26405;51.850;-2.246;2023-05-10T08:26:23;13.95;;;3.17;;
40717;SDS011;26405;51.850;-2.246;2023-05-10T08:28:48;11.07;;;3.00;;
40717;SDS011;26405;51.850;-2.246;2023-05-10T08:31:13;15.35;;;4.07;;
40717;SDS011;26405;51.850;-2.246;2023-05-10T08:33:39;13.57;;;3.28;;
40717;SDS011;26405;51.850;-2.246;2023-05-10T08:36:04;12.52;;;3.10;;
40717;SDS011;26405;51.850;-2.246;2023-05-10T08:38:29;6.57;;;2.40;;
40717;SDS011;26405;51.850;-2.246;2023-05-10T08:40:55;10.88;;;2.60;;
40717;SDS011;26405;51.850;-2.246;2023-05-10T08:43:24;11.68;;;3.00;;
40717;SDS011;26405;51.850;-2.246;2023-05-10T08:45:51;11.30;;;2.85;;
40717;SDS011;26405;51.850;-2.246;2023-05-10T08:48:17;10.80;;;3.08;;
40717;SDS011;26405;51.850;-2.246;2023-05-10T08:50:43;12.32;;;3.35;;
40717;SDS011;26405;51.850;-2.246;2023-05-10T08:53:09;13.63;;;3.45;;
40717;SDS011;26405;51.850;-2.246;2023-05-10T08:55:35;12.55;;;2.90;;
40717;SDS011;26405;51.850;-2.246;2023-05-10T08:58:05;12.63;;;3.55;;
40717;SDS011;26405;51.850;-2.246;2023-05-10T09:00:30;14.43;;;3.45;;
40717;SDS011;26405;51.850;-2.246;2023-05-10T09:02:56;9.63;;;2.72;;
40717;SDS011;26405;51.850;-2.246;2023-05-10T09:05:22;9.75;;;2.88;;
40717;SDS011;26405;51.850;-2.246;2023-05-10T09:07:48;9.57;;;2.70;;
40717;SDS011;26405;51.850;-2.246;2023-05-10T09:10:13;11.98;;;3.05;;
40717;SDS011;26405;51.850;-2.246;2023-05-10T09:12:38;8.57;;;2.80;;
40717;SDS011;26405;51.850;-2.246;2023-05-10T09:15:04;12.40;;;3.03;;
40717;SDS011;26405;51.850;-2.246;2023-05-10T09:17:30;8.68;;;2.63;;
40717;SDS011;26405;51.850;-2.246;2023-05-10T09:19:59;10.10;;;2.90;;
40717;SDS011;26405;51.850;-2.246;2023-05-10T09:22:24;10.40;;;2.25;;
40717;SDS011;26405;51.850;-2.246;2023-05-10T09:27:30;7.60;;;2.42;;
40717;SDS011;26405;51.850;-2.246;2023-05-10T09:29:55;8.33;;;2.40;;
40717;SDS011;26405;51.850;-2.246;2023-05-10T09:32:21;6.13;;;2.30;;
40717;SDS011;26405;51.850;-2.246;2023-05-10T09:34:46;11.70;;;2.60;;
40717;SDS011;26405;51.850;-2.246;2023-05-10T09:37:14;8.98;;;2.47;;
40717;SDS011;26405;51.850;-2.246;2023-05-10T09:39:39;8.33;;;2.57;;
40717;SDS011;26405;51.850;-2.246;2023-05-10T09:42:07;10.63;;;2.92;;
40717;SDS011;26405;51.850;-2.246;2023-05-10T09:44:33;9.02;;;2.85;;
40717;SDS011;26405;51.850;-2.246;2023-05-10T09:46:59;8.47;;;2.47;;
40717;SDS011;26405;51.850;-2.246;2023-05-10T09:49:24;9.18;;;2.40;;
40717;SDS011;26405;51.850;-2.246;2023-05-10T09:52:05;6.97;;;2.70;;
40717;SDS011;26405;51.850;-2.246;2023-05-10T09:54:31;6.97;;;2.30;;
40717;SDS011;26405;51.850;-2.246;2023-05-10T09:56:57;6.32;;;2.08;;
40717;SDS011;26405;51.850;-2.246;2023-05-10T09:59:24;6.80;;;2.15;;
40717;SDS011;26405;51.850;-2.246;2023-05-10T10:01:50;5.88;;;2.30;;
40717;SDS011;26405;51.850;-2.246;2023-05-10T10:04:16;8.47;;;2.10;;
40717;SDS011;26405;51.850;-2.246;2023-05-10T10:06:41;6.40;;;2.13;;
40717;SDS011;26405;51.850;-2.246;2023-05-10T10:09:07;6.17;;;2.30;;
40717;SDS011;26405;51.850;-2.246;2023-05-10T10:11:36;4.13;;;2.10;;
40717;SDS011;26405;51.850;-2.246;2023-05-10T10:14:01;6.25;;;2.40;;
40717;SDS011;26405;51.850;-2.246;2023-05-10T10:16:28;8.70;;;2.37;;
40717;SDS011;26405;51.850;-2.246;2023-05-10T10:21:19;9.53;;;2.47;;
40717;SDS011;26405;51.850;-2.246;2023-05-10T10:23:45;5.95;;;2.15;;
40717;SDS011;26405;51.850;-2.246;2023-05-10T10:26:11;9.10;;;2.90;;
40717;SDS011;26405;51.850;-2.246;2023-05-10T10:36:21;9.93;;;2.53;;
40717;SDS011;26405;51.850;-2.246;2023-05-10T10:41:31;8.83;;;2.60;;
40717;SDS011;26405;51.850;-2.246;2023-05-10T10:47:01;8.02;;;2.72;;
40717;SDS011;26405;51.850;-2.246;2023-05-10T10:49:27;9.90;;;2.72;;
40717;SDS011;26405;51.850;-2.246;2023-05-10T10:54:36;8.45;;;2.60;;
40717;SDS011;26405;51.850;-2.246;2023-05-10T10:57:20;13.43;;;3.20;;
40717;SDS011;26405;51.850;-2.246;2023-05-10T10:59:46;11.55;;;2.80;;
40717;SDS011;26405;51.850;-2.246;2023-05-10T11:04:56;12.30;;;3.15;;
40717;SDS011;26405;51.850;-2.246;2023-05-10T11:07:21;14.93;;;3.67;;
40717;SDS011;26405;51.850;-2.246;2023-05-10T11:09:47;14.87;;;3.40;;
40717;SDS011;26405;51.850;-2.246;2023-05-10T11:12:12;9.23;;;2.97;;
40717;SDS011;26405;51.850;-2.246;2023-05-10T11:14:38;12.50;;;3.60;;
40717;SDS011;26405;51.850;-2.246;2023-05-10T11:17:21;15.50;;;3.60;;
40717;SDS011;26405;51.850;-2.246;2023-05-10T11:20:02;14.38;;;3.50;;
40717;SDS011;26405;51.850;-2.246;2023-05-10T11:22:28;12.60;;;3.45;;
40717;SDS011;26405;51.850;-2.246;2023-05-10T11:24:57;16.47;;;4.17;;
40717;SDS011;26405;51.850;-2.246;2023-05-10T11:27:23;13.77;;;3.42;;
40717;SDS011;26405;51.850;-2.246;2023-05-10T11:29:51;10.97;;;3.57;;
40717;SDS011;26405;51.850;-2.246;2023-05-10T11:32:17;12.50;;;3.40;;
40717;SDS011;26405;51.850;-2.246;2023-05-10T11:34:42;13.60;;;3.87;;
40717;SDS011;26405;51.850;-2.246;2023-05-10T11:37:12;15.55;;;4.03;;
40717;SDS011;26405;51.850;-2.246;2023-05-10T11:39:38;12.52;;;3.80;;
40717;SDS011;26405;51.850;-2.246;2023-05-10T11:42:03;17.77;;;4.40;;
40717;SDS011;26405;51.850;-2.246;2023-05-10T11:44:29;12.85;;;3.22;;
40717;SDS011;26405;51.850;-2.246;2023-05-10T11:46:57;11.55;;;3.38;;
40717;SDS011;26405;51.850;-2.246;2023-05-10T11:49:23;12.60;;;3.05;;
40717;SDS011;26405;51.850;-2.246;2023-05-10T11:51:49;13.38;;;3.17;;
40717;SDS011;26405;51.850;-2.246;2023-05-10T11:54:15;12.75;;;3.30;;
40717;SDS011;26405;51.850;-2.246;2023-05-10T11:56:40;14.43;;;3.53;;
40717;SDS011;26405;51.850;-2.246;2023-05-10T11:59:06;14.38;;;3.15;;
40717;SDS011;26405;51.850;-2.246;2023-05-10T12:01:31;11.80;;;3.27;;
40717;SDS011;26405;51.850;-2.246;2023-05-10T12:03:57;14.32;;;3.40;;
40717;SDS011;26405;51.850;-2.246;2023-05-10T12:06:29;9.98;;;3.03;;
40717;SDS011;26405;51.850;-2.246;2023-05-10T12:08:56;12.20;;;2.88;;
40717;SDS011;26405;51.850;-2.246;2023-05-10T12:11:24;12.65;;;3.40;;
40717;SDS011;26405;51.850;-2.246;2023-05-10T12:13:49;10.27;;;2.95;;
40717;SDS011;26405;51.850;-2.246;2023-05-10T12:16:15;10.98;;;3.22;;
40717;SDS011;26405;51.850;-2.246;2023-05-10T12:18:41;10.43;;;3.00;;
40717;SDS011;26405;51.850;-2.246;2023-05-10T12:21:08;10.65;;;3.03;;
40717;SDS011;26405;51.850;-2.246;2023-05-10T12:23:34;12.13;;;3.00;;
40717;SDS011;26405;51.850;-2.246;2023-05-10T12:26:02;5.45;;;2.60;;
40717;SDS011;26405;51.850;-2.246;2023-05-10T12:28:29;8.48;;;2.90;;
40717;SDS011;26405;51.850;-2.246;2023-05-10T12:30:55;9.43;;;2.83;;
40717;SDS011;26405;51.850;-2.246;2023-05-10T12:33:22;7.32;;;2.55;;
40717;SDS011;26405;51.850;-2.246;2023-05-10T12:35:48;10.30;;;3.10;;
40717;SDS011;26405;51.850;-2.246;2023-05-10T12:40:51;7.13;;;2.53;;
40717;SDS011;26405;51.850;-2.246;2023-05-10T12:43:17;7.33;;;2.77;;
40717;SDS011;26405;51.850;-2.246;2023-05-10T12:45:42;7.70;;;2.70;;
40717;SDS011;26405;51.850;-2.246;2023-05-10T12:48:07;7.37;;;2.50;;
40717;SDS011;26405;51.850;-2.246;2023-05-10T12:50:33;8.77;;;2.60;;
40717;SDS011;26405;51.850;-2.246;2023-05-10T12:52:58;8.93;;;2.43;;
40717;SDS011;26405;51.850;-2.246;2023-05-10T12:55:23;10.93;;;2.90;;
40717;SDS011;26405;51.850;-2.246;2023-05-10T12:57:48;9.80;;;2.27;;
40717;SDS011;26405;51.850;-2.246;2023-05-10T13:00:14;9.65;;;3.00;;
40717;SDS011;26405;51.850;-2.246;2023-05-10T13:02:39;11.00;;;3.00;;
40717;SDS011;26405;51.850;-2.246;2023-05-10T13:05:05;14.03;;;3.40;;
40717;SDS011;26405;51.850;-2.246;2023-05-10T13:07:30;13.20;;;3.50;;
40717;SDS011;26405;51.850;-2.246;2023-05-10T13:09:56;13.45;;;3.20;;
40717;SDS011;26405;51.850;-2.246;2023-05-10T13:12:21;12.30;;;3.23;;
40717;SDS011;26405;51.850;-2.246;2023-05-10T13:14:46;11.30;;;3.10;;
40717;SDS011;26405;51.850;-2.246;2023-05-10T13:17:11;11.95;;;3.17;;
40717;SDS011;26405;51.850;-2.246;2023-05-10T13:19:37;12.50;;;3.63;;
40717;SDS011;26405;51.850;-2.246;2023-05-10T13:22:02;8.83;;;2.83;;
40717;SDS011;26405;51.850;-2.246;2023-05-10T13:24:27;14.77;;;3.50;;
40717;SDS011;26405;51.850;-2.246;2023-05-10T13:26:53;17.83;;;3.83;;
40717;SDS011;26405;51.850;-2.246;2023-05-10T13:29:18;16.92;;;3.97;;
40717;SDS011;26405;51.850;-2.246;2023-05-10T13:31:44;16.33;;;3.83;;
40717;SDS011;26405;51.850;-2.246;2023-05-10T13:34:09;20.45;;;3.78;;
40717;SDS011;26405;51.850;-2.246;2023-05-10T13:36:35;8.25;;;2.75;;
40717;SDS011;26405;51.850;-2.246;2023-05-10T13:39:00;6.35;;;2.20;;
40717;SDS011;26405;51.850;-2.246;2023-05-10T13:41:27;6.68;;;2.28;;
40717;SDS011;26405;51.850;-2.246;2023-05-10T13:43:52;4.70;;;2.03;;
40717;SDS011;26405;51.850;-2.246;2023-05-10T13:46:18;4.38;;;1.90;;
40717;SDS011;26405;51.850;-2.246;2023-05-10T13:48:44;2.60;;;1.67;;
40717;SDS011;26405;51.850;-2.246;2023-05-10T13:51:09;3.00;;;1.63;;
40717;SDS011;26405;51.850;-2.246;2023-05-10T13:53:34;3.92;;;1.58;;
40717;SDS011;26405;51.850;-2.246;2023-05-10T13:56:00;2.58;;;1.55;;
40717;SDS011;26405;51.850;-2.246;2023-05-10T13:58:25;4.68;;;1.88;;
40717;SDS011;26405;51.850;-2.246;2023-05-10T14:00:50;5.47;;;1.60;;
40717;SDS011;26405;51.850;-2.246;2023-05-10T14:03:16;4.88;;;1.67;;
40717;SDS011;26405;51.850;-2.246;2023-05-10T14:05:41;4.05;;;1.55;;
40717;SDS011;26405;51.850;-2.246;2023-05-10T14:08:07;3.65;;;1.50;;
40717;SDS011;26405;51.850;-2.246;2023-05-10T14:12:59;4.57;;;1.40;;
40717;SDS011;26405;51.850;-2.246;2023-05-10T14:15:24;3.85;;;1.33;;
40717;SDS011;26405;51.850;-2.246;2023-05-10T14:17:50;5.05;;;1.20;;
40717;SDS011;26405;51.850;-2.246;2023-05-10T14:20:15;3.83;;;1.48;;
40717;SDS011;26405;51.850;-2.246;2023-05-10T14:22:40;3.85;;;1.45;;
40717;SDS011;26405;51.850;-2.246;2023-05-10T14:25:06;3.22;;;1.52;;
40717;SDS011;26405;51.850;-2.246;2023-05-10T14:27:31;3.47;;;1.50;;
40717;SDS011;26405;51.850;-2.246;2023-05-10T14:29:57;3.57;;;2.00;;
40717;SDS011;26405;51.850;-2.246;2023-05-10T14:32:22;9.30;;;2.63;;
40717;SDS011;26405;51.850;-2.246;2023-05-10T14:34:47;7.23;;;2.20;;
40717;SDS011;26405;51.850;-2.246;2023-05-10T14:37:13;11.50;;;3.10;;
40717;SDS011;26405;51.850;-2.246;2023-05-10T14:39:39;9.47;;;3.00;;
40717;SDS011;26405;51.850;-2.246;2023-05-10T14:42:04;13.17;;;2.97;;
40717;SDS011;26405;51.850;-2.246;2023-05-10T14:44:29;11.63;;;2.97;;
40717;SDS011;26405;51.850;-2.246;2023-05-10T14:46:55;11.27;;;2.93;;
40717;SDS011;26405;51.850;-2.246;2023-05-10T14:49:21;10.88;;;2.97;;
40717;SDS011;26405;51.850;-2.246;2023-05-10T14:51:47;7.90;;;2.90;;
40717;SDS011;26405;51.850;-2.246;2023-05-10T14:54:13;12.80;;;3.00;;
40717;SDS011;26405;51.850;-2.246;2023-05-10T14:56:38;12.45;;;2.92;;
40717;SDS011;26405;51.850;-2.246;2023-05-10T14:59:03;9.03;;;2.77;;
40717;SDS011;26405;51.850;-2.246;2023-05-10T15:01:29;9.43;;;2.77;;
40717;SDS011;26405;51.850;-2.246;2023-05-10T15:03:54;14.43;;;2.90;;
40717;SDS011;26405;51.850;-2.246;2023-05-10T15:06:22;7.37;;;2.60;;
40717;SDS011;26405;51.850;-2.246;2023-05-10T15:08:48;4.78;;;2.40;;
40717;SDS011;26405;51.850;-2.246;2023-05-10T15:11:14;6.10;;;2.07;;
40717;SDS011;26405;51.850;-2.246;2023-05-10T15:13:39;5.53;;;2.23;;